Vaughn, Washington
Current Conditions -  °F | °C
As of 3:53 PM on Friday 31 Oct 2014 (Local Time) from KTIW Reporting Station
Broken Clouds Broken Clouds  
Wind Chill: 53°   Ceiling: 5000
Heat Index: 53°   Visibility: 10mi
Dew Point: 48°   Wind: 9mph
Humidity: 83%   Direction: 180°S
Pressure: 29.84"   Gusts: NA
Location:  47.34°N, 122.77°W
Report Text: KTIW 312253Z 18008KT 10SM SCT012 BKN050 12/09 A2984 RMK AO2 SLP105 T01170089
Loading
Personal Weather Stations






























Interactive Weather Map
Tropical Storm Tracking
New forecast layout! Learn more

10-Day Weather Forecast

Advertisements
Track Severe Weather on mobile